Lexington, KY

7:00 PM EDT on May 28, 2015 (GMT -0400)
Beaumont | | Change Station
CLOSE
Current Station
Personal Weather Station
Location: Lexington, KY
Elevation: 976 ft
Nearby Weather Stations

Elev 976 ft 38.02 °N, 84.56 °W | Updated 26 seconds ago

Overcast
Overcast
77.7 °F
Feels Like 79 °F
N
2.3
Wind Variable Wind from South
Gusts 2.3 mph

Today
High -- | Low -- °F
--% Chance of Precip.
Yesterday
High -- | Low -- °F
Precip. -- in
6:19 AM 8:52 PM
Waxing Gibbous, 79% visible
Pressure 30.15 in
Visibility 10.0 miles
Clouds Overcast 10000 ft
Heat Index 79 °F
Dew Point 61 °F
Humidity 57%
Rainfall 0.00 in
Snow Depth Not available.
UV 1 out of 12
Pollen 7.60 out of 12
Air Quality Not available.
Flu Activity Sporadic
METAR KLEX 282254Z 17006KT 10SM OVC100 25/18 A3017 RMK AO2 SLP208 T02500183

More Conditions Fewer Conditions

Pressure 30.15 in
Visibility 10.0 miles
Clouds Overcast 10000 ft
Heat Index 79 °F
Dew Point 61 °F
Humidity 57%
Rainfall 0.00 in
Snow Depth Not available.
UV 1 out of 12
Pollen 7.60 out of 12
Air Quality Not available.
Flu Activity Sporadic
METAR KLEX 282254Z 17006KT 10SM OVC100 25/18 A3017 RMK AO2 SLP208 T02500183

More Conditions Fewer Conditions

10-Day Weather Forecast

Almanac

Astronomy

May. 28, 2015 Rise Set
Actual Time
Civil Twilight
Nautical Twilight
Astronomical Twilight
Moon
Length of Visible Light
Length of Day
Tomorrow will be .
, % of the Moon is Illuminated

Today's Extremes

State Highs State Lows

Community

WunderPhotos

Upload Photos

1,825,089 photos uploaded!

WunderBlogs® & News

Nearby

Air Quality

  Air Quality AQ Index Pollutant
Not available.

Snow Depth

Station Depth Elevation

Earthquake Activity

City Distance Mag. Time & Date
Minimum magnitude displayed is 2.5.

Coastal Water Temperatures

Place Temperature

Stations

Nearby Weather Stations

Station Location Temp. Windchill Dew Point Humidity Wind Precip. Elev Updated Type